createdAt,value
2024-01-16T00:00:29.946Z,31.70
2024-01-16T00:01:32.204Z,40.09
2024-01-16T00:02:34.772Z,37.00
2024-01-16T00:03:39.042Z,37.00
2024-01-16T00:04:42.416Z,37.60
2024-01-16T00:05:44.755Z,38.50
2024-01-16T00:06:48.566Z,37.40
2024-01-16T00:07:51.689Z,37.20
2024-01-16T00:08:54.022Z,39.09
2024-01-16T00:09:56.715Z,37.40
2024-01-16T00:11:00.129Z,35.82
2024-01-16T00:12:04.469Z,39.80
2024-01-16T00:13:07.137Z,39.50
2024-01-16T00:14:10.342Z,37.70
2024-01-16T00:15:12.934Z,41.30
2024-01-16T00:16:17.541Z,40.10
2024-01-16T00:17:21.587Z,39.20
2024-01-16T00:18:24.058Z,38.10
2024-01-16T00:19:26.677Z,38.40
2024-01-16T00:20:29.297Z,36.50
2024-01-16T00:21:31.497Z,36.90
2024-01-16T00:22:33.910Z,35.40
2024-01-16T00:23:36.328Z,37.40
2024-01-16T00:24:39.244Z,33.10
2024-01-16T00:25:42.182Z,38.00
2024-01-16T00:26:45.143Z,38.20
2024-01-16T00:27:48.576Z,37.36
2024-01-16T00:28:51.025Z,37.80
2024-01-16T00:29:53.486Z,36.60
2024-01-16T00:30:55.752Z,38.30
2024-01-16T00:31:58.948Z,38.11
2024-01-16T00:33:01.843Z,34.10
2024-01-16T00:34:04.492Z,36.36
2024-01-16T00:35:07.516Z,36.00
2024-01-16T00:36:11.125Z,36.40
2024-01-16T00:37:13.810Z,35.50
2024-01-16T00:38:16.130Z,31.80
2024-01-16T00:39:18.732Z,35.40
2024-01-16T00:40:21.826Z,35.40
2024-01-16T00:41:25.546Z,35.50
2024-01-16T00:42:30.004Z,35.50
2024-01-16T00:43:32.893Z,36.80
2024-01-16T00:44:36.694Z,36.73
2024-01-16T00:45:41.136Z,34.70
2024-01-16T00:46:44.743Z,33.60
2024-01-16T00:47:47.401Z,33.00
2024-01-16T00:48:49.933Z,33.60
2024-01-16T00:49:52.198Z,33.80
2024-01-16T00:50:55.364Z,38.30
2024-01-16T00:51:57.848Z,35.90
2024-01-16T00:53:00.357Z,35.20
2024-01-16T00:54:03.203Z,35.00
2024-01-16T00:55:06.219Z,34.55
2024-01-16T00:56:09.704Z,34.30
2024-01-16T00:57:12.816Z,34.30
2024-01-16T00:58:15.780Z,35.70
2024-01-16T00:59:18.103Z,31.40
2024-01-16T01:00:20.827Z,33.20
2024-01-16T01:01:24.168Z,29.50
2024-01-16T01:02:28.460Z,16.40
2024-01-16T01:03:31.188Z,33.40
2024-01-16T01:04:35.026Z,33.60
2024-01-16T01:05:37.462Z,30.80
2024-01-16T01:06:40.256Z,33.40
2024-01-16T01:07:42.482Z,31.80
2024-01-16T01:08:45.056Z,30.67
2024-01-16T01:09:47.169Z,32.70
2024-01-16T01:10:49.733Z,31.30
2024-01-16T01:11:52.182Z,35.70
2024-01-16T01:12:54.824Z,35.30
2024-01-16T01:13:57.743Z,36.50
2024-01-16T01:15:00.119Z,34.36
2024-01-16T01:16:02.676Z,37.90
2024-01-16T01:17:06.253Z,31.70
2024-01-16T01:18:09.034Z,32.40
2024-01-16T01:19:11.625Z,33.10
2024-01-16T01:20:15.448Z,27.60
2024-01-16T01:21:18.249Z,34.50
2024-01-16T01:22:20.767Z,32.27
2024-01-16T01:23:24.122Z,33.10
2024-01-16T01:24:26.530Z,32.10
2024-01-16T01:25:28.692Z,31.10
2024-01-16T01:26:31.730Z,29.00
2024-01-16T01:27:35.205Z,30.60
2024-01-16T01:28:39.356Z,31.30
2024-01-16T01:29:42.809Z,31.00
2024-01-16T01:30:46.394Z,31.30
2024-01-16T01:31:49.039Z,33.40
2024-01-16T01:32:52.155Z,34.50
2024-01-16T01:33:54.747Z,26.27
2024-01-16T01:34:57.042Z,35.90
2024-01-16T01:36:01.494Z,34.20
2024-01-16T01:37:04.128Z,29.90
2024-01-16T01:38:08.114Z,31.00
2024-01-16T01:39:11.595Z,32.40
2024-01-16T01:40:18.255Z,33.10
2024-01-16T01:41:20.373Z,29.10
2024-01-16T01:42:22.570Z,34.80
2024-01-16T01:43:26.109Z,30.80
2024-01-16T01:44:28.589Z,32.50
2024-01-16T01:45:31.246Z,33.20
2024-01-16T01:46:35.582Z,27.70
2024-01-16T01:47:39.946Z,34.00
2024-01-16T01:48:43.904Z,26.70
2024-01-16T01:49:46.343Z,35.10
2024-01-16T01:50:49.255Z,33.90
2024-01-16T01:51:53.030Z,34.18
2024-01-16T01:52:55.708Z,33.70
2024-01-16T01:53:59.795Z,29.40
2024-01-16T01:55:02.824Z,31.90
2024-01-16T01:57:20.574Z,37.30
2024-01-16T01:58:23.887Z,35.91
2024-01-16T01:59:26.595Z,26.50
2024-01-16T02:00:29.369Z,35.00
2024-01-16T02:01:33.642Z,37.90
2024-01-16T02:02:36.055Z,34.60
2024-01-16T02:03:46.980Z,35.70
2024-01-16T02:04:49.886Z,31.50
2024-01-16T02:05:53.213Z,29.80
2024-01-16T02:06:58.516Z,34.80
2024-01-16T02:08:01.021Z,27.10
2024-01-16T02:09:05.524Z,35.60
2024-01-16T02:10:09.758Z,30.20
2024-01-16T02:11:12.737Z,32.09
2024-01-16T02:12:16.173Z,33.45
2024-01-16T02:13:22.221Z,23.80
2024-01-16T02:14:24.698Z,34.90
2024-01-16T02:15:26.784Z,37.60
2024-01-16T02:16:32.850Z,33.00
2024-01-16T02:17:35.085Z,32.50
2024-01-16T02:18:37.647Z,31.70
2024-01-16T02:19:39.968Z,33.60
2024-01-16T02:20:43.391Z,35.60
2024-01-16T02:21:51.187Z,32.90
2024-01-16T02:22:56.736Z,36.00
2024-01-16T02:23:59.165Z,31.00
2024-01-16T02:25:02.585Z,37.00
2024-01-16T02:26:05.611Z,33.50
2024-01-16T02:27:08.183Z,34.50
2024-01-16T02:28:11.080Z,34.40
2024-01-16T02:29:13.833Z,27.70
2024-01-16T02:30:17.209Z,34.30
2024-01-16T02:31:20.124Z,35.50
2024-01-16T02:32:22.917Z,38.27
2024-01-16T02:33:25.616Z,35.50
2024-01-16T02:34:28.090Z,34.82
2024-01-16T02:35:30.256Z,30.00
2024-01-16T02:36:33.762Z,32.89
2024-01-16T02:37:36.312Z,35.40
2024-01-16T02:38:38.692Z,35.70
2024-01-16T02:39:41.097Z,32.20
2024-01-16T02:40:43.998Z,24.10
2024-01-16T02:41:46.364Z,34.70
2024-01-16T02:42:48.674Z,36.40
2024-01-16T02:43:53.037Z,33.70
2024-01-16T02:44:58.441Z,33.00
2024-01-16T02:46:02.370Z,33.70
2024-01-16T02:47:06.807Z,33.80
2024-01-16T02:48:10.558Z,33.30
2024-01-16T02:49:13.697Z,31.20
2024-01-16T02:50:16.672Z,34.00
2024-01-16T02:51:18.999Z,35.90
2024-01-16T02:52:21.220Z,31.44
2024-01-16T02:53:23.322Z,35.78
2024-01-16T02:54:25.885Z,34.60
2024-01-16T02:55:28.368Z,33.00
2024-01-16T02:56:30.797Z,34.90
2024-01-16T02:57:35.027Z,34.60
2024-01-16T02:58:37.797Z,34.70
2024-01-16T02:59:39.938Z,29.60
2024-01-16T03:00:42.513Z,38.30
2024-01-16T03:01:45.270Z,33.40
2024-01-16T03:02:49.008Z,35.10
2024-01-16T03:03:53.787Z,27.80
2024-01-16T03:04:56.506Z,36.00
2024-01-16T03:06:00.090Z,35.40
2024-01-16T03:07:03.147Z,35.90
2024-01-16T03:08:06.860Z,29.10
2024-01-16T03:09:09.495Z,32.30
2024-01-16T03:10:12.898Z,35.00
2024-01-16T03:11:16.214Z,33.90
2024-01-16T03:12:19.319Z,30.80
2024-01-16T03:13:21.747Z,30.80
2024-01-16T03:14:24.050Z,35.50
2024-01-16T03:15:26.302Z,33.11
2024-01-16T03:16:28.766Z,39.20
2024-01-16T03:17:31.869Z,33.60
2024-01-16T03:18:35.145Z,34.60
2024-01-16T03:19:37.853Z,27.00
2024-01-16T03:20:40.252Z,36.90
2024-01-16T03:21:45.379Z,28.90
2024-01-16T03:22:47.773Z,36.60
2024-01-16T03:23:50.609Z,30.80
2024-01-16T03:24:53.236Z,24.09
2024-01-16T03:25:55.493Z,38.30
2024-01-16T03:26:58.988Z,19.50
2024-01-16T03:28:01.290Z,36.60
2024-01-16T03:29:03.563Z,35.56
2024-01-16T03:30:09.029Z,37.90
2024-01-16T03:31:15.818Z,36.20
2024-01-16T03:32:20.833Z,36.00
2024-01-16T03:33:23.301Z,35.50
2024-01-16T03:34:25.486Z,38.70
2024-01-16T03:35:27.938Z,35.10
2024-01-16T03:36:30.926Z,36.60
2024-01-16T03:37:34.578Z,37.90
2024-01-16T03:38:40.720Z,31.40
2024-01-16T03:39:44.860Z,36.00
2024-01-16T03:40:48.735Z,36.40
2024-01-16T03:41:51.270Z,38.20
2024-01-16T03:42:53.783Z,38.00
2024-01-16T03:43:57.263Z,39.70
2024-01-16T03:44:59.472Z,29.30
2024-01-16T03:46:02.057Z,38.00
2024-01-16T03:47:05.124Z,32.20
2024-01-16T03:48:07.724Z,38.30
2024-01-16T03:49:10.461Z,30.60
2024-01-16T03:50:13.379Z,36.20
2024-01-16T03:51:17.676Z,37.00
2024-01-16T03:52:20.483Z,34.45
2024-01-16T03:53:23.557Z,38.70
2024-01-16T03:54:26.296Z,34.80
2024-01-16T03:55:28.858Z,33.50
2024-01-16T03:56:31.733Z,31.00
2024-01-16T03:57:34.018Z,35.40
2024-01-16T03:58:36.444Z,34.00
2024-01-16T03:59:39.386Z,35.10
2024-01-16T04:00:42.217Z,38.00
2024-01-16T04:01:45.847Z,36.10
2024-01-16T04:02:49.274Z,38.40
2024-01-16T04:03:51.677Z,31.90
2024-01-16T04:04:54.490Z,34.60
2024-01-16T04:05:56.861Z,34.60
2024-01-16T04:07:00.078Z,38.20
2024-01-16T04:08:02.944Z,31.10
2024-01-16T04:09:05.979Z,37.50
2024-01-16T04:10:09.265Z,34.40
2024-01-16T04:11:14.172Z,33.90
2024-01-16T04:12:16.362Z,33.80
2024-01-16T04:13:19.700Z,28.70
2024-01-16T04:14:22.260Z,36.80
2024-01-16T04:15:24.861Z,36.00
2024-01-16T04:16:27.889Z,36.00
2024-01-16T04:17:30.270Z,35.55
2024-01-16T04:18:41.628Z,31.20
2024-01-16T04:19:44.030Z,35.50
2024-01-16T04:20:46.694Z,38.10
2024-01-16T04:21:49.013Z,37.40
2024-01-16T04:22:51.552Z,37.70
2024-01-16T04:23:54.655Z,38.50
2024-01-16T04:24:57.090Z,38.50
2024-01-16T04:25:59.647Z,34.40
2024-01-16T04:27:02.756Z,37.80
2024-01-16T04:28:05.513Z,35.80
2024-01-16T04:29:08.994Z,36.27
2024-01-16T04:30:13.944Z,33.00
2024-01-16T04:31:18.217Z,36.90
2024-01-16T04:32:20.608Z,34.50
2024-01-16T04:33:23.528Z,38.00
2024-01-16T04:34:26.143Z,35.30
2024-01-16T04:35:29.076Z,33.70
2024-01-16T04:36:31.821Z,36.50
2024-01-16T04:37:34.021Z,30.11
2024-01-16T04:38:37.185Z,35.50
2024-01-16T04:39:40.020Z,33.70
2024-01-16T04:41:54.604Z,38.10
2024-01-16T04:42:56.858Z,37.10
2024-01-16T04:43:58.888Z,28.30
2024-01-16T04:45:01.374Z,36.40
2024-01-16T04:46:04.248Z,34.40
2024-01-16T04:47:07.003Z,31.90
2024-01-16T04:48:09.265Z,39.40
2024-01-16T04:49:12.050Z,36.10
2024-01-16T04:50:14.857Z,39.90
2024-01-16T04:51:17.263Z,35.90
2024-01-16T04:52:19.616Z,35.70
2024-01-16T04:53:21.802Z,34.30
2024-01-16T04:54:24.454Z,39.30
2024-01-16T04:55:28.891Z,33.50
2024-01-16T04:56:31.777Z,35.60
2024-01-16T04:57:35.804Z,33.27
2024-01-16T04:58:38.741Z,36.50
2024-01-16T04:59:41.453Z,34.70
2024-01-16T05:00:43.965Z,32.91
2024-01-16T05:01:46.819Z,35.90
2024-01-16T05:02:50.194Z,38.40
2024-01-16T05:03:52.623Z,35.40
2024-01-16T05:04:55.050Z,34.80
2024-01-16T05:05:57.990Z,36.09
2024-01-16T05:07:02.005Z,37.60
2024-01-16T05:08:04.934Z,31.80
2024-01-16T05:09:07.278Z,37.64
2024-01-16T05:10:13.438Z,35.30
2024-01-16T05:11:15.697Z,26.50
2024-01-16T05:12:17.898Z,35.67
2024-01-16T05:13:20.118Z,31.30
2024-01-16T05:14:24.337Z,37.80
2024-01-16T05:15:26.838Z,37.20
2024-01-16T05:16:29.358Z,40.60
2024-01-16T05:17:31.879Z,39.10
2024-01-16T05:18:34.306Z,36.60
2024-01-16T05:19:37.867Z,38.50
2024-01-16T05:20:41.492Z,37.90
2024-01-16T05:21:43.730Z,43.30
2024-01-16T05:22:45.889Z,38.00
2024-01-16T05:25:02.520Z,24.30
2024-01-16T05:26:07.532Z,40.20
2024-01-16T05:27:09.988Z,41.40
2024-01-16T05:28:14.677Z,38.40
2024-01-16T05:29:19.308Z,18.40
2024-01-16T05:30:22.723Z,39.50
2024-01-16T05:31:25.088Z,37.18
2024-01-16T05:32:27.875Z,30.10
2024-01-16T05:33:30.341Z,24.91
2024-01-16T05:34:32.804Z,39.10
2024-01-16T05:35:35.105Z,40.10
2024-01-16T05:36:38.251Z,37.20
2024-01-16T05:37:40.586Z,38.80
2024-01-16T05:38:44.008Z,43.30
2024-01-16T05:39:46.924Z,37.10
2024-01-16T05:40:49.765Z,38.90
2024-01-16T05:41:52.209Z,37.50
2024-01-16T05:42:54.593Z,36.30
2024-01-16T05:43:56.849Z,39.20
2024-01-16T05:44:59.137Z,42.00
2024-01-16T05:46:01.421Z,38.50
2024-01-16T05:47:05.484Z,41.20
2024-01-16T05:48:09.046Z,39.00
2024-01-16T05:49:12.506Z,38.00
2024-01-16T05:50:19.012Z,36.60
2024-01-16T05:51:21.736Z,39.00
2024-01-16T05:52:24.568Z,40.00
2024-01-16T05:53:26.869Z,40.40
2024-01-16T05:54:29.497Z,38.10
2024-01-16T05:55:32.900Z,37.40
2024-01-16T05:56:35.626Z,40.20
2024-01-16T05:57:38.055Z,42.00
2024-01-16T05:58:40.553Z,41.40
2024-01-16T05:59:43.178Z,42.10
2024-01-16T06:00:46.684Z,39.70
2024-01-16T06:01:50.363Z,44.80
2024-01-16T06:02:52.564Z,45.10
2024-01-16T06:03:55.407Z,37.00
2024-01-16T06:04:57.713Z,39.80
2024-01-16T06:06:01.290Z,36.90
2024-01-16T06:07:07.539Z,32.40
2024-01-16T06:08:09.976Z,37.70
2024-01-16T06:09:14.124Z,36.40
2024-01-16T06:10:17.033Z,41.20
2024-01-16T06:11:21.215Z,40.50
2024-01-16T06:12:25.625Z,40.50
2024-01-16T06:13:28.380Z,44.20
2024-01-16T06:14:30.882Z,52.70
2024-01-16T06:15:34.468Z,43.30
2024-01-16T06:16:36.861Z,46.30
2024-01-16T06:17:39.736Z,42.50
2024-01-16T06:18:42.043Z,38.00
2024-01-16T06:19:44.813Z,48.30
2024-01-16T06:20:48.664Z,47.20
2024-01-16T06:21:51.129Z,39.40
2024-01-16T06:22:53.642Z,44.40
2024-01-16T06:23:56.482Z,40.40
2024-01-16T06:24:59.835Z,39.00
2024-01-16T06:26:02.860Z,41.60
2024-01-16T06:27:06.964Z,40.36
2024-01-16T06:28:10.267Z,39.70
2024-01-16T06:29:21.467Z,43.91
2024-01-16T06:30:17.117Z,42.20
2024-01-16T06:31:20.012Z,40.30
2024-01-16T06:32:22.316Z,38.80
2024-01-16T06:33:24.672Z,37.80
2024-01-16T06:34:29.454Z,38.50
2024-01-16T06:35:31.840Z,38.70
2024-01-16T06:36:34.180Z,37.40
2024-01-16T06:37:37.591Z,38.70
2024-01-16T06:38:41.225Z,31.50
2024-01-16T06:39:44.258Z,28.90
2024-01-16T06:40:46.956Z,38.60
2024-01-16T06:41:49.366Z,42.30
2024-01-16T06:42:52.106Z,42.60
2024-01-16T06:43:54.772Z,40.30
2024-01-16T06:44:57.698Z,32.30
2024-01-16T06:46:00.540Z,33.90
2024-01-16T06:47:02.861Z,37.00
2024-01-16T06:48:07.975Z,39.10
2024-01-16T06:49:10.643Z,45.80
2024-01-16T06:50:13.344Z,32.30
2024-01-16T06:51:16.581Z,48.10
2024-01-16T06:52:20.665Z,49.70
2024-01-16T06:53:24.403Z,47.00
2024-01-16T06:54:27.330Z,45.00
2024-01-16T06:55:29.651Z,49.30
2024-01-16T06:56:32.796Z,48.00
2024-01-16T06:57:35.085Z,52.91
2024-01-16T06:58:37.188Z,50.11
2024-01-16T06:59:41.089Z,50.60
2024-01-16T07:00:43.765Z,50.40
2024-01-16T07:01:46.355Z,42.00
2024-01-16T07:02:49.730Z,50.40
2024-01-16T07:03:53.053Z,46.80
2024-01-16T07:04:56.485Z,53.45
2024-01-16T07:05:59.600Z,48.50
2024-01-16T07:07:03.172Z,44.30
2024-01-16T07:08:05.617Z,43.00
2024-01-16T07:09:09.730Z,47.00
2024-01-16T07:10:17.712Z,51.00
2024-01-16T07:11:23.447Z,49.60
2024-01-16T07:12:26.728Z,46.90
2024-01-16T07:13:28.814Z,33.18
2024-01-16T07:14:33.411Z,44.70
2024-01-16T07:15:35.955Z,46.90
2024-01-16T07:16:38.722Z,46.90
2024-01-16T07:17:41.432Z,43.60
2024-01-16T07:18:46.219Z,51.40
2024-01-16T07:19:47.987Z,42.80
2024-01-16T07:20:50.368Z,46.50
2024-01-16T07:21:53.610Z,45.40
2024-01-16T07:22:56.860Z,43.80
2024-01-16T07:23:59.138Z,49.60
2024-01-16T07:25:01.614Z,44.00
2024-01-16T07:26:05.654Z,39.90
2024-01-16T07:27:08.034Z,40.90
2024-01-16T07:28:10.365Z,42.70
2024-01-16T07:29:12.651Z,39.80
2024-01-16T07:30:16.866Z,23.90
2024-01-16T07:31:20.336Z,33.60
2024-01-16T07:32:25.074Z,35.10
2024-01-16T07:33:28.497Z,32.80
2024-01-16T07:34:31.630Z,33.50
2024-01-16T07:35:34.108Z,21.80
2024-01-16T07:36:36.666Z,42.30
2024-01-16T07:37:39.024Z,40.00
2024-01-16T07:38:41.404Z,35.70
2024-01-16T07:39:44.278Z,37.50
2024-01-16T07:40:46.770Z,35.64
2024-01-16T07:41:50.505Z,34.30
2024-01-16T07:42:53.534Z,39.70
2024-01-16T07:43:56.233Z,37.18
2024-01-16T07:44:58.700Z,35.30
2024-01-16T07:46:01.903Z,26.70
2024-01-16T07:47:04.539Z,33.45
2024-01-16T07:48:07.283Z,38.00
2024-01-16T07:49:10.659Z,30.30
2024-01-16T07:50:13.128Z,27.70
2024-01-16T07:51:15.342Z,41.40
2024-01-16T07:52:18.406Z,36.20
2024-01-16T07:53:21.183Z,37.80
2024-01-16T07:54:24.634Z,42.50
2024-01-16T07:55:28.014Z,38.60
2024-01-16T07:56:30.619Z,36.80
2024-01-16T07:57:33.590Z,41.09
2024-01-16T07:58:36.243Z,41.60
2024-01-16T07:59:38.541Z,42.00
2024-01-16T08:00:44.221Z,34.70
2024-01-16T08:01:47.254Z,32.50
2024-01-16T08:02:50.906Z,23.50
2024-01-16T08:03:53.654Z,41.10
2024-01-16T08:04:55.726Z,39.00
2024-01-16T08:05:57.906Z,31.33
2024-01-16T08:07:00.586Z,35.90
2024-01-16T08:08:05.990Z,32.30
2024-01-16T08:09:09.074Z,31.90
2024-01-16T08:10:13.458Z,28.40
2024-01-16T08:11:17.677Z,40.36
2024-01-16T08:12:20.200Z,33.70
2024-01-16T08:13:22.858Z,15.60
2024-01-16T08:14:26.773Z,28.90
2024-01-16T08:15:29.263Z,32.20
2024-01-16T08:16:31.818Z,20.60
2024-01-16T08:17:34.772Z,31.50
2024-01-16T08:18:37.984Z,30.90
2024-01-16T08:19:40.568Z,42.20
2024-01-16T08:20:43.186Z,35.50
2024-01-16T08:21:45.850Z,26.60
2024-01-16T08:22:48.034Z,34.40
2024-01-16T08:23:50.597Z,33.70
2024-01-16T08:24:53.467Z,23.80
2024-01-16T08:25:58.672Z,31.40
2024-01-16T08:27:01.203Z,22.90
2024-01-16T08:28:05.478Z,29.70
2024-01-16T08:29:07.897Z,16.40
2024-01-16T08:30:12.921Z,11.30
2024-01-16T08:31:19.059Z,25.30
2024-01-16T08:32:22.200Z,29.40
2024-01-16T08:33:31.514Z,21.55
2024-01-16T08:34:29.525Z,19.80
2024-01-16T08:35:33.142Z,23.90
2024-01-16T08:36:35.989Z,18.80
2024-01-16T08:37:38.226Z,28.50
2024-01-16T08:38:42.340Z,31.00
2024-01-16T08:39:45.117Z,29.50
2024-01-16T08:40:47.643Z,29.00
2024-01-16T08:41:50.256Z,34.20
2024-01-16T08:42:56.698Z,21.82
2024-01-16T08:43:59.206Z,21.20
2024-01-16T08:45:02.804Z,24.20
2024-01-16T08:46:05.189Z,19.60
2024-01-16T08:47:08.474Z,20.80
2024-01-16T08:48:12.897Z,24.60
2024-01-16T08:49:18.803Z,16.20
2024-01-16T08:50:21.569Z,21.10
2024-01-16T08:51:24.437Z,11.40
2024-01-16T08:52:27.226Z,23.18
2024-01-16T08:53:31.310Z,24.20
2024-01-16T08:54:34.383Z,21.70
2024-01-16T08:55:36.654Z,19.90
2024-01-16T08:56:39.479Z,18.50
2024-01-16T08:57:42.371Z,19.80
2024-01-16T08:58:44.829Z,22.45
2024-01-16T08:59:48.046Z,14.20
2024-01-16T09:00:50.995Z,21.40
2024-01-16T09:01:55.556Z,19.10
2024-01-16T09:03:01.527Z,21.70
2024-01-16T09:04:03.451Z,23.90
2024-01-16T09:05:06.524Z,20.90
2024-01-16T09:06:12.192Z,18.80
2024-01-16T09:07:17.405Z,22.10
2024-01-16T09:08:20.339Z,19.70
2024-01-16T09:09:22.717Z,18.30
2024-01-16T09:10:25.770Z,17.40
2024-01-16T09:11:28.584Z,18.80
2024-01-16T09:12:31.378Z,22.18
2024-01-16T09:13:34.790Z,22.90
2024-01-16T09:14:37.840Z,19.70
2024-01-16T09:15:41.457Z,17.20
2024-01-16T09:16:44.298Z,15.40
2024-01-16T09:17:47.247Z,20.18
2024-01-16T09:18:51.025Z,17.55
2024-01-16T09:19:53.425Z,17.50
2024-01-16T09:20:56.135Z,18.30
2024-01-16T09:21:58.699Z,17.60
2024-01-16T09:23:01.157Z,24.20
2024-01-16T09:24:04.067Z,14.50
2024-01-16T09:25:06.942Z,22.40
2024-01-16T09:26:12.158Z,17.80
2024-01-16T09:27:16.395Z,10.40
2024-01-16T09:28:19.445Z,17.40
2024-01-16T09:29:23.805Z,11.60
2024-01-16T09:30:27.104Z,14.50
2024-01-16T09:31:29.954Z,19.50
2024-01-16T09:32:32.813Z,16.45
2024-01-16T09:33:36.030Z,17.82
2024-01-16T09:34:38.763Z,18.80
2024-01-16T09:35:41.704Z,21.60
2024-01-16T09:36:44.488Z,15.27
2024-01-16T09:37:46.764Z,18.50
2024-01-16T09:38:49.247Z,12.60
2024-01-16T09:39:51.724Z,20.60
2024-01-16T09:40:56.080Z,13.30
2024-01-16T09:42:03.027Z,18.50
2024-01-16T09:43:05.892Z,10.80
2024-01-16T09:44:08.222Z,14.60
2024-01-16T09:45:11.580Z,10.60
2024-01-16T09:46:17.495Z,17.20
2024-01-16T09:47:20.336Z,14.80
2024-01-16T09:48:23.247Z,16.40
2024-01-16T09:49:25.966Z,15.45
2024-01-16T09:50:30.034Z,15.30
2024-01-16T09:51:32.315Z,19.10
2024-01-16T09:52:35.013Z,24.50
2024-01-16T09:53:37.292Z,18.90
2024-01-16T09:54:39.524Z,22.20
2024-01-16T09:55:41.652Z,16.44
2024-01-16T09:56:46.292Z,16.80
2024-01-16T09:57:52.300Z,10.40
2024-01-16T09:59:02.254Z,15.40
2024-01-16T10:00:06.409Z,15.90
2024-01-16T10:01:09.763Z,16.70
2024-01-16T10:02:14.465Z,19.09
2024-01-16T10:03:18.923Z,11.20
2024-01-16T10:04:22.390Z,15.40
2024-01-16T10:05:25.031Z,14.40
2024-01-16T10:06:30.578Z,29.40
2024-01-16T10:07:34.200Z,18.40
2024-01-16T10:08:38.570Z,11.60
2024-01-16T10:09:42.820Z,10.20
2024-01-16T10:10:49.053Z,7.00
2024-01-16T10:11:51.541Z,9.20
2024-01-16T10:12:54.309Z,11.10
2024-01-16T10:13:58.893Z,13.30
2024-01-16T10:15:01.708Z,9.80
2024-01-16T10:16:04.520Z,8.09
2024-01-16T10:17:08.782Z,10.10
2024-01-16T10:18:31.128Z,11.30
2024-01-16T10:19:43.191Z,3.00
2024-01-16T10:20:40.317Z,13.10
2024-01-16T10:21:42.749Z,12.30
2024-01-16T10:22:53.579Z,20.50
2024-01-16T10:23:56.141Z,3.80
2024-01-16T10:25:10.230Z,9.70
2024-01-16T10:26:14.729Z,9.10
2024-01-16T10:27:18.665Z,9.50
2024-01-16T10:28:24.775Z,13.70
2024-01-16T10:29:32.519Z,8.00
2024-01-16T10:30:32.101Z,7.80
2024-01-16T10:31:34.594Z,8.70
2024-01-16T10:32:39.670Z,12.80
2024-01-16T10:33:42.902Z,8.60
2024-01-16T10:34:46.411Z,9.00
2024-01-16T10:35:48.808Z,8.20
2024-01-16T10:36:53.534Z,9.40
2024-01-16T10:37:56.968Z,4.90
2024-01-16T10:39:03.125Z,5.10
2024-01-16T10:40:09.646Z,10.20
2024-01-16T10:41:18.412Z,9.70
2024-01-16T10:42:21.022Z,6.70
2024-01-16T10:43:24.696Z,8.45
2024-01-16T10:44:28.093Z,5.50
2024-01-16T10:45:33.549Z,10.30
2024-01-16T10:46:40.457Z,8.90
2024-01-16T10:47:43.165Z,7.90
2024-01-16T10:48:49.082Z,8.18
2024-01-16T10:49:52.036Z,7.90
2024-01-16T10:50:54.633Z,5.27
2024-01-16T10:51:57.287Z,8.10
2024-01-16T10:53:10.301Z,8.50
2024-01-16T10:54:17.582Z,6.10
2024-01-16T10:55:22.982Z,5.30
2024-01-16T10:56:28.429Z,11.00
2024-01-16T10:57:33.676Z,8.70
2024-01-16T10:58:39.310Z,11.40
2024-01-16T10:59:51.839Z,4.50
2024-01-16T11:00:57.769Z,5.40
2024-01-16T11:02:04.512Z,6.00
2024-01-16T11:03:13.846Z,8.30
2024-01-16T11:04:17.268Z,6.20
2024-01-16T11:05:22.440Z,6.60
2024-01-16T11:06:27.730Z,7.20
2024-01-16T11:07:31.177Z,8.30
2024-01-16T11:08:36.615Z,8.20
2024-01-16T11:09:41.375Z,4.90
2024-01-16T11:10:45.588Z,3.20
2024-01-16T11:11:48.102Z,5.20
2024-01-16T11:12:52.128Z,5.90
2024-01-16T11:13:55.775Z,10.20
2024-01-16T11:15:01.893Z,7.20
2024-01-16T11:16:05.874Z,10.30
2024-01-16T11:17:11.138Z,15.70
2024-01-16T11:18:16.486Z,4.30
2024-01-16T11:19:37.732Z,1.60
2024-01-16T11:20:47.805Z,4.60
2024-01-16T11:21:34.993Z,3.80
2024-01-16T11:22:44.411Z,8.80
2024-01-16T11:23:49.682Z,5.50
2024-01-16T11:25:13.447Z,5.00
2024-01-16T11:26:31.710Z,1.40
2024-01-16T11:27:35.082Z,0.20
2024-01-16T11:28:37.191Z,3.40
2024-01-16T11:29:40.103Z,9.10
2024-01-16T11:30:45.975Z,6.60
2024-01-16T11:31:48.749Z,9.20
2024-01-16T11:32:51.520Z,1.90
2024-01-16T11:33:54.597Z,6.00
2024-01-16T11:34:56.895Z,4.10
2024-01-16T11:36:00.553Z,5.10
2024-01-16T11:37:06.682Z,3.80
2024-01-16T11:38:18.465Z,6.10
2024-01-16T11:39:22.892Z,5.70
2024-01-16T11:40:26.892Z,9.80
2024-01-16T11:41:56.005Z,9.60
2024-01-16T11:42:59.935Z,5.70
2024-01-16T11:44:02.327Z,9.30
2024-01-16T11:45:08.104Z,3.80
2024-01-16T11:46:12.266Z,5.30
2024-01-16T11:47:19.519Z,6.90
2024-01-16T11:48:22.261Z,8.60
2024-01-16T11:49:25.056Z,7.90
2024-01-16T11:50:31.051Z,2.55
2024-01-16T11:51:34.178Z,2.00
2024-01-16T11:52:44.170Z,6.27
2024-01-16T11:53:47.662Z,5.40
2024-01-16T11:54:50.642Z,3.70
2024-01-16T11:56:11.962Z,4.36
2024-01-16T11:57:27.627Z,7.80
2024-01-16T11:58:53.407Z,3.20
2024-01-16T12:00:02.407Z,2.80
2024-01-16T12:01:06.979Z,7.00
2024-01-16T12:02:21.791Z,8.30
2024-01-16T12:03:32.009Z,6.40
2024-01-16T12:04:29.394Z,2.10
2024-01-16T12:05:32.667Z,5.10
2024-01-16T12:06:38.042Z,7.20
2024-01-16T12:07:45.923Z,5.60
2024-01-16T12:08:48.390Z,9.60
2024-01-16T12:09:51.138Z,5.20
2024-01-16T12:10:53.568Z,5.90
2024-01-16T12:12:01.730Z,8.70
2024-01-16T12:13:05.708Z,2.60
2024-01-16T12:14:08.229Z,10.50
2024-01-16T12:15:21.822Z,8.20
2024-01-16T12:16:24.536Z,7.20
2024-01-16T12:17:26.811Z,0.80
2024-01-16T12:18:38.511Z,5.10
2024-01-16T12:19:34.280Z,4.60
2024-01-16T12:20:38.941Z,5.20
2024-01-16T12:21:45.954Z,1.90
2024-01-16T12:22:57.858Z,5.20
2024-01-16T12:24:08.726Z,4.30
2024-01-16T12:25:06.806Z,4.90
2024-01-16T12:26:09.518Z,3.00
2024-01-16T12:27:12.273Z,6.50
2024-01-16T12:28:24.399Z,4.00
2024-01-16T12:29:20.940Z,2.00
2024-01-16T12:30:26.648Z,4.60
2024-01-16T12:31:30.690Z,1.80
2024-01-16T12:32:34.114Z,6.20
2024-01-16T12:33:37.523Z,6.80
2024-01-16T12:34:51.167Z,5.90
2024-01-16T12:36:03.234Z,13.20
2024-01-16T12:37:08.364Z,9.60
2024-01-16T12:38:13.894Z,6.20
2024-01-16T12:39:19.675Z,10.60
2024-01-16T12:40:23.047Z,7.30
2024-01-16T12:41:39.007Z,1.90
2024-01-16T12:42:35.357Z,7.50
2024-01-16T12:43:38.609Z,7.80
2024-01-16T12:44:41.711Z,6.20
2024-01-16T12:45:45.936Z,6.50
2024-01-16T12:47:01.032Z,6.10
2024-01-16T12:48:05.574Z,4.70
2024-01-16T12:49:11.188Z,4.40
2024-01-16T12:50:23.376Z,8.40
2024-01-16T12:51:25.833Z,3.00
2024-01-16T12:52:30.503Z,7.30
2024-01-16T12:53:34.395Z,1.40
2024-01-16T12:54:36.964Z,1.90
2024-01-16T12:55:40.913Z,8.70
2024-01-16T12:56:44.035Z,3.00
2024-01-16T12:57:46.612Z,4.27
2024-01-16T12:58:49.009Z,3.40
2024-01-16T12:59:53.045Z,5.60
2024-01-16T13:00:59.443Z,4.70
2024-01-16T13:02:02.469Z,4.60
2024-01-16T13:03:05.065Z,4.00
2024-01-16T13:04:10.062Z,5.40
2024-01-16T13:05:16.340Z,8.80
2024-01-16T13:06:24.042Z,8.20
2024-01-16T13:07:27.711Z,7.00
2024-01-16T13:08:32.377Z,6.60
2024-01-16T13:09:35.318Z,8.00
2024-01-16T13:10:39.055Z,8.73
2024-01-16T13:11:53.496Z,8.00
2024-01-16T13:13:18.916Z,8.10
2024-01-16T13:14:23.215Z,7.80
2024-01-16T13:15:25.729Z,6.90
2024-01-16T13:16:32.302Z,2.60
2024-01-16T13:17:35.842Z,14.30
2024-01-16T13:18:38.358Z,13.90
2024-01-16T13:19:44.557Z,13.90
2024-01-16T13:20:48.046Z,14.60
2024-01-16T13:21:52.749Z,9.10
2024-01-16T13:22:55.381Z,10.30
2024-01-16T13:23:57.915Z,11.30
2024-01-16T13:25:08.688Z,8.50
2024-01-16T13:26:08.260Z,5.40
2024-01-16T13:27:12.627Z,9.80
2024-01-16T13:28:24.015Z,4.20
2024-01-16T13:29:26.658Z,4.40
2024-01-16T13:30:40.278Z,5.70
2024-01-16T13:31:34.353Z,7.50
2024-01-16T13:32:38.863Z,8.20
2024-01-16T13:33:42.801Z,4.80
2024-01-16T13:34:47.225Z,10.70
2024-01-16T13:35:50.334Z,9.70
2024-01-16T13:37:09.011Z,11.10
2024-01-16T13:38:00.069Z,9.50
2024-01-16T13:39:02.518Z,10.70
2024-01-16T13:40:11.194Z,8.10
2024-01-16T13:41:13.977Z,16.10
2024-01-16T13:42:18.792Z,19.70
2024-01-16T13:43:21.834Z,10.90
2024-01-16T13:44:25.231Z,4.00
2024-01-16T13:45:29.171Z,6.30
2024-01-16T13:46:49.099Z,6.10
2024-01-16T13:47:40.806Z,8.90
2024-01-16T13:48:46.345Z,11.00
2024-01-16T13:49:48.970Z,10.60
2024-01-16T13:50:51.947Z,11.20
2024-01-16T13:51:54.727Z,7.82